Time;durP1;ratioP1;P1;durP2;ratioP2;P2;SDS_P1;SDS_P2;PMS_P1;PMS_P2;Temp;Humidity;BMP_temperature;BMP_pressure;BME280_temperature;BME280_humidity;BME280_pressure;Samples;Min_cycle;Max_cycle;Signal;HPM_P1;HPM_P2
2023/04/02 14:16:27;;;;;;;0.60;0.60;;;;;;;13.95;52.33;99072.59;5132220;27;20409;-66
2023/04/02 14:19:18;;;;;;;0.50;0.50;;;;;;;13.82;51.30;99077.19;5132121;27;20071;-66
2023/04/02 14:21:59;;;;;;;0.40;0.40;;;;;;;13.71;51.58;99078.31;5131912;27;20047;-67
2023/04/02 14:24:37;;;;;;;0.68;0.68;;;;;;;13.68;51.47;99093.75;5132028;28;20550;-68
2023/04/02 14:27:18;;;;;;;0.50;0.50;;;;;;;13.60;51.92;99096.53;5132030;28;20046;-67
2023/04/02 14:29:57;;;;;;;0.73;0.70;;;;;;;13.48;50.97;99106.19;5132130;27;20475;-66
2023/04/02 14:32:36;;;;;;;0.55;0.55;;;;;;;13.53;51.64;99109.50;5131643;28;20089;-67
2023/04/02 14:35:16;;;;;;;0.60;0.60;;;;;;;13.41;51.59;99110.63;5131501;28;20071;-67
2023/04/02 14:37:54;;;;;;;0.60;0.60;;;;;;;13.24;51.50;99123.78;5131776;28;20046;-66
2023/04/02 14:40:28;;;;;;;0.73;0.73;;;;;;;13.12;51.73;99124.03;5131402;28;20055;-67
2023/04/02 14:43:03;;;;;;;1.08;0.98;;;;;;;12.88;51.74;99115.94;5131461;28;20053;-69
2023/04/02 14:45:48;;;;;;;1.33;1.13;;;;;;;12.72;52.48;99112.81;5131299;27;20499;-65
2023/04/02 14:48:35;;;;;;;0.40;0.40;;;;;;;12.65;52.54;99116.34;5131396;28;20039;-69
2023/04/02 14:51:10;;;;;;;0.38;0.38;;;;;;;12.56;52.45;99130.19;5131526;28;20374;-67
2023/04/02 14:53:54;;;;;;;0.47;0.47;;;;;;;12.60;52.63;99110.47;5131275;27;20113;-67
2023/04/02 14:56:25;;;;;;;0.60;0.60;;;;;;;12.58;52.50;99131.00;5131262;27;20096;-65
2023/04/02 14:59:16;;;;;;;0.82;0.80;;;;;;;12.52;52.41;99130.25;5131540;27;20043;-69
2023/04/02 15:01:49;;;;;;;0.40;0.40;;;;;;;12.33;52.51;99144.25;5131117;27;20050;-65
2023/04/02 15:04:26;;;;;;;0.40;0.40;;;;;;;12.02;52.50;99154.94;5131091;28;20413;-66
2023/04/02 15:07:02;;;;;;;1.05;0.60;;;;;;;11.64;53.00;99152.06;5130951;28;20043;-65
2023/04/02 15:09:40;;;;;;;0.52;0.52;;;;;;;11.60;53.75;99149.56;5131579;27;20043;-66
2023/04/02 15:12:20;;;;;;;0.32;0.32;;;;;;;11.60;54.13;99165.75;5130775;28;20064;-67
2023/04/02 15:14:55;;;;;;;0.45;0.45;;;;;;;11.52;54.19;99167.53;5130405;28;20051;-66
2023/04/02 15:17:24;;;;;;;0.55;0.55;;;;;;;11.43;54.12;99173.63;5130760;27;20089;-70
2023/04/02 15:20:09;;;;;;;0.47;0.47;;;;;;;11.27;54.11;99186.59;5130706;27;20051;-66
2023/04/02 15:22:58;;;;;;;1.13;1.02;;;;;;;11.12;54.30;99186.78;5130585;27;20047;-67
2023/04/02 15:25:37;;;;;;;0.50;0.50;;;;;;;11.17;54.92;99196.09;5128086;28;20040;-66
2023/04/02 15:28:21;;;;;;;1.10;1.00;;;;;;;11.15;55.22;99202.06;5116933;28;20119;-66
2023/04/02 15:30:55;;;;;;;0.80;0.80;;;;;;;11.08;55.05;99215.78;5116612;28;20135;-65
2023/04/02 15:33:45;;;;;;;0.85;0.68;;;;;;;10.96;54.98;99211.63;5116848;28;20048;-67
2023/04/02 15:36:34;;;;;;;0.50;0.50;;;;;;;10.63;55.23;99212.78;5117061;28;20048;-68
2023/04/02 15:39:20;;;;;;;0.40;0.40;;;;;;;10.44;56.21;99226.53;5104244;28;20074;-64
2023/04/02 15:42:01;;;;;;;0.40;0.40;;;;;;;10.22;55.86;99234.38;5116455;27;20078;-64
2023/04/02 15:44:30;;;;;;;1.13;0.63;;;;;;;10.14;56.17;99234.41;5116567;28;20405;-65
2023/04/02 15:47:10;;;;;;;0.77;0.73;;;;;;;9.98;56.34;99236.16;5116790;28;20512;-64
2023/04/02 15:49:45;;;;;;;2.65;0.88;;;;;;;9.87;56.54;99237.06;5116683;27;20058;-69
2023/04/02 15:52:26;;;;;;;0.70;0.70;;;;;;;9.86;57.07;99245.59;5116385;28;20138;-67
2023/04/02 15:55:15;;;;;;;0.40;0.40;;;;;;;9.61;56.64;99265.22;5116308;28;20097;-65
2023/04/02 15:58:09;;;;;;;0.60;0.60;;;;;;;9.58;56.92;99270.31;5115956;27;20517;-66
2023/04/02 16:01:01;;;;;;;1.02;0.93;;;;;;;9.48;56.57;99278.03;5116327;28;20047;-66
2023/04/02 16:04:03;;;;;;;5.25;0.95;;;;;;;9.29;56.48;99285.69;5116077;28;20051;-64
2023/04/02 16:06:53;;;;;;;1.58;1.08;;;;;;;9.22;56.85;99295.88;5116213;28;20047;-66
2023/04/02 16:09:29;;;;;;;0.50;0.50;;;;;;;9.17;56.74;99292.50;5115644;28;20075;-66
2023/04/02 16:12:09;;;;;;;0.95;0.77;;;;;;;9.12;56.92;99300.13;5115967;28;20425;-65
2023/04/02 16:14:39;;;;;;;0.43;0.43;;;;;;;9.03;56.76;99312.88;5115968;28;20036;-65
2023/04/02 16:17:16;;;;;;;0.50;0.50;;;;;;;8.89;56.65;99312.03;5115819;28;20410;-66
2023/04/02 16:19:59;;;;;;;2.25;1.48;;;;;;;8.71;56.78;99317.09;5115871;28;20413;-65
2023/04/02 16:22:31;;;;;;;0.70;0.70;;;;;;;8.52;58.35;99321.31;5115768;28;20397;-65
2023/04/02 16:25:15;;;;;;;0.63;0.63;;;;;;;8.51;58.43;99328.97;5115846;28;20048;-66
2023/04/02 16:27:58;;;;;;;0.50;0.50;;;;;;;8.50;58.53;99342.50;5115713;28;20055;-67
2023/04/02 16:30:45;;;;;;;0.85;0.85;;;;;;;8.35;58.02;99340.78;5115771;28;20054;-66
2023/04/02 16:33:30;;;;;;;0.77;0.73;;;;;;;8.27;58.73;99336.53;5115708;28;20048;-68
2023/04/02 16:36:11;;;;;;;0.70;0.70;;;;;;;8.26;58.97;99334.78;5115731;28;20522;-65
2023/04/02 16:38:57;;;;;;;0.60;0.60;;;;;;;8.19;58.66;99340.69;5113910;28;20055;-68
2023/04/02 16:41:54;;;;;;;0.22;0.22;;;;;;;8.06;59.74;99350.81;5113172;27;20052;-69
2023/04/02 16:45:00;;;;;;;0.30;0.30;;;;;;;7.95;60.35;99360.13;5110722;28;20108;-67
2023/04/02 16:47:50;;;;;;;0.47;0.47;;;;;;;7.97;59.95;99366.03;5115409;28;20051;-67
2023/04/02 16:50:34;;;;;;;1.02;1.02;;;;;;;7.97;60.69;99366.03;5115022;28;20082;-66
2023/04/02 16:53:18;;;;;;;1.42;1.33;;;;;;;7.91;61.16;99371.13;5115203;28;20047;-67
2023/04/02 16:56:07;;;;;;;0.60;0.60;;;;;;;7.85;60.07;99376.16;5115178;28;20047;-66
2023/04/02 16:59:12;;;;;;;0.63;0.63;;;;;;;7.70;61.17;99381.13;5113774;28;20558;-70
2023/04/02 17:01:46;;;;;;;0.77;0.77;;;;;;;7.64;61.50;99386.19;5115428;28;20134;-66
2023/04/02 17:04:32;;;;;;;1.08;1.02;;;;;;;7.60;62.25;99383.63;5115212;28;20059;-66
2023/04/02 17:07:15;;;;;;;0.83;0.83;;;;;;;7.60;61.90;99387.03;5115024;28;20118;-65
2023/04/02 17:09:50;;;;;;;0.80;0.80;;;;;;;7.57;61.69;99388.69;5113975;28;20059;-67
2023/04/02 17:12:21;;;;;;;1.20;1.10;;;;;;;7.59;61.48;99392.06;5114869;28;20043;-66
2023/04/02 17:14:57;;;;;;;0.43;0.43;;;;;;;7.50;61.89;99386.94;5114846;28;20040;-67
2023/04/02 17:17:26;;;;;;;16.30;1.30;;;;;;;7.49;61.48;99388.63;5114595;28;20048;-66
2023/04/02 17:19:59;;;;;;;0.50;0.50;;;;;;;7.40;62.22;99386.03;5115073;28;20050;-67
2023/04/02 17:22:31;;;;;;;0.40;0.40;;;;;;;7.37;62.80;99386.00;5114717;27;20046;-67
2023/04/02 17:25:07;;;;;;;0.45;0.45;;;;;;;7.30;62.39;99385.09;5114763;28;20044;-67
2023/04/02 17:27:39;;;;;;;0.40;0.40;;;;;;;7.25;62.19;99403.66;5114903;28;20040;-65
2023/04/02 17:30:16;;;;;;;1.13;1.00;;;;;;;7.01;62.79;99371.34;5114807;28;20428;-66
2023/04/02 17:32:48;;;;;;;;;;;;;;;7.16;62.61;99401.06;5114979;28;20564;-67
2023/04/02 17:35:22;;;;;;;0.30;0.30;;;;;;;7.11;62.81;99407.78;5114400;28;19927;-66
2023/04/02 17:38:05;;;;;;;1.10;1.00;;;;;;;7.10;62.86;99411.19;5114464;28;20047;-66
2023/04/02 17:40:51;;;;;;;0.77;0.77;;;;;;;7.09;63.04;99419.63;5114789;28;20555;-65
2023/04/02 17:43:36;;;;;;;0.47;0.47;;;;;;;7.09;63.49;99424.69;5114239;28;20074;-64
2023/04/02 17:46:20;;;;;;;1.02;0.93;;;;;;;7.04;63.89;99426.34;5113900;28;20048;-65
2023/04/02 17:48:57;;;;;;;1.95;0.80;;;;;;;7.04;63.48;99437.34;5114306;28;20048;-67
2023/04/02 17:51:34;;;;;;;0.43;0.43;;;;;;;6.97;63.92;99445.72;5114475;28;20466;-65
2023/04/02 17:54:19;;;;;;;0.85;0.65;;;;;;;6.96;63.69;99448.25;5114166;28;20157;-67
2023/04/02 17:57:11;;;;;;;0.43;0.43;;;;;;;7.02;63.33;99463.53;5114352;28;20039;-65
2023/04/02 17:59:55;;;;;;;0.88;0.88;;;;;;;7.00;63.30;99470.28;5099036;28;20036;-64
2023/04/02 18:02:46;;;;;;;1.73;0.90;;;;;;;7.07;63.15;99472.03;5114056;28;20040;-65
2023/04/02 18:05:25;;;;;;;1.15;1.05;;;;;;;7.02;63.22;99474.53;5114147;28;20092;-65
2023/04/02 18:08:04;;;;;;;1.35;1.25;;;;;;;7.06;63.10;99477.94;5114143;28;20040;-64
2023/04/02 18:10:44;;;;;;;2.53;1.40;;;;;;;7.06;62.73;99490.63;5113587;28;20051;-66
2023/04/02 18:13:24;;;;;;;1.20;1.10;;;;;;;7.05;63.62;99483.88;5113090;28;20043;-64
2023/04/02 18:16:11;;;;;;;2.75;1.00;;;;;;;7.01;62.93;99492.25;5113649;28;20294;-65
2023/04/02 18:19:02;;;;;;;1.13;1.05;;;;;;;6.98;63.11;99498.16;5113855;28;20035;-65
2023/04/02 18:21:39;;;;;;;0.50;0.50;;;;;;;6.96;62.72;99499.00;5112852;28;20050;-64
2023/04/02 18:24:29;;;;;;;0.85;0.85;;;;;;;6.93;63.12;99504.03;5113765;28;20047;-67
2023/04/02 18:27:26;;;;;;;0.60;0.60;;;;;;;6.87;63.20;99514.94;5114468;28;20043;-64
2023/04/02 18:30:13;;;;;;;0.55;0.55;;;;;;;6.83;63.48;99512.38;5113919;28;20131;-65
2023/04/02 18:33:10;;;;;;;1.48;1.38;;;;;;;6.81;63.26;99530.13;5113842;28;20409;-64
2023/04/02 18:35:49;;;;;;;1.48;1.38;;;;;;;6.76;63.13;99546.97;5113784;28;20051;-64
2023/04/02 18:38:29;;;;;;;2.15;1.33;;;;;;;6.74;63.15;99548.63;5114025;28;20112;-65
2023/04/02 18:41:18;;;;;;;0.73;0.73;;;;;;;6.71;63.44;99557.06;5113725;28;20071;-66
2023/04/02 18:44:12;;;;;;;1.05;0.93;;;;;;;6.70;63.02;99557.88;5113920;28;20056;-65
2023/04/02 18:46:49;;;;;;;0.47;0.47;;;;;;;6.67;63.31;99567.97;5113115;28;20048;-65
2023/04/02 18:49:33;;;;;;;0.95;0.93;;;;;;;6.69;63.34;99575.63;5113613;28;20097;-64
2023/04/02 18:52:11;;;;;;;1.23;1.10;;;;;;;6.67;63.36;99580.66;5113947;28;20443;-67
2023/04/02 18:54:44;;;;;;;1.75;1.58;;;;;;;6.63;63.39;99586.53;5113656;28;20054;-65
2023/04/02 18:57:16;;;;;;;0.90;0.85;;;;;;;6.63;63.27;99581.44;5113548;28;20044;-66
2023/04/02 18:59:52;;;;;;;1.08;0.57;;;;;;;6.66;63.41;99586.56;5113366;28;20135;-65
2023/04/02 19:02:34;;;;;;;2.20;0.82;;;;;;;6.61;62.72;99598.31;5116935;28;20073;-64
2023/04/02 19:05:06;;;;;;;1.55;1.05;;;;;;;6.64;63.25;99598.38;5116822;28;20130;-64
2023/04/02 19:07:43;;;;;;;0.30;0.30;;;;;;;6.62;62.85;99600.00;5117679;28;20043;-65
2023/04/02 19:10:26;;;;;;;0.30;0.30;;;;;;;6.58;63.42;99597.41;5117390;27;20048;-65
2023/04/02 19:12:55;;;;;;;0.50;0.50;;;;;;;6.62;63.10;99604.25;5117256;28;20054;-66
2023/04/02 19:15:30;;;;;;;2.08;1.55;;;;;;;6.59;63.00;99610.13;5115932;28;20114;-65
2023/04/02 19:18:08;;;;;;;0.60;0.60;;;;;;;6.58;63.18;99605.88;5117074;28;20080;-66
2023/04/02 19:20:44;;;;;;;1.65;0.77;;;;;;;6.55;63.07;99615.97;5117128;28;20047;-66
2023/04/02 19:23:34;;;;;;;0.40;0.40;;;;;;;6.49;63.03;99610.84;5118207;28;20047;-66
2023/04/02 19:26:08;;;;;;;0.50;0.50;;;;;;;6.48;63.16;99620.94;5117602;28;20105;-65
2023/04/02 19:28:43;;;;;;;0.65;0.65;;;;;;;6.44;63.04;99612.44;5117079;28;20050;-66
2023/04/02 19:31:26;;;;;;;2.13;1.95;;;;;;;6.46;63.06;99615.00;5116599;28;20048;-66
2023/04/02 19:34:02;;;;;;;1.08;0.90;;;;;;;6.43;62.77;99607.38;5116837;27;20055;-65
2023/04/02 19:36:43;;;;;;;0.57;0.57;;;;;;;6.37;63.00;99603.06;5116737;28;20047;-66
2023/04/02 19:39:41;;;;;;;1.40;0.70;;;;;;;6.36;63.35;99605.56;5116741;28;20047;-65
2023/04/02 19:42:19;;;;;;;0.47;0.47;;;;;;;6.33;62.96;99603.84;5107561;28;20139;-65
2023/04/02 19:44:51;;;;;;;0.65;0.65;;;;;;;6.28;63.18;99608.00;5116887;28;20044;-64
2023/04/02 19:47:21;;;;;;;1.45;1.05;;;;;;;6.27;63.56;99611.34;5116614;28;20043;-65
2023/04/02 19:49:53;;;;;;;0.43;0.43;;;;;;;6.24;63.23;99602.84;5116894;28;20044;-65
2023/04/02 19:52:24;;;;;;;0.68;0.68;;;;;;;6.28;63.33;99618.13;5116105;28;20047;-65
2023/04/02 19:54:55;;;;;;;6.38;2.13;;;;;;;6.23;63.11;99616.34;5116337;28;20565;-64
2023/04/02 19:57:23;;;;;;;1.02;0.95;;;;;;;6.21;62.86;99611.25;5116553;28;20043;-65
2023/04/02 19:59:52;;;;;;;2.07;1.33;;;;;;;6.14;62.94;99614.53;5116385;28;20040;-66
2023/04/02 20:02:21;;;;;;;1.13;0.90;;;;;;;5.89;63.55;99582.03;5116631;28;20321;-65
2023/04/02 20:04:51;;;;;;;1.17;1.08;;;;;;;6.04;63.52;99615.22;5116240;28;20035;-66
2023/04/02 20:07:20;;;;;;;0.95;0.95;;;;;;;6.09;63.66;99616.13;5116217;28;20048;-64
2023/04/02 20:09:50;;;;;;;1.25;1.15;;;;;;;6.07;63.49;99623.69;5116160;28;20040;-64
2023/04/02 20:12:20;;;;;;;0.60;0.60;;;;;;;6.05;63.84;99624.50;5115980;28;20492;-65
2023/04/02 20:14:49;;;;;;;2.72;1.75;;;;;;;6.05;63.64;99634.63;5115767;28;20062;-66
2023/04/02 20:17:18;;;;;;;6.55;2.28;;;;;;;6.03;63.67;99631.22;5115867;28;20070;-65
2023/04/02 20:19:47;;;;;;;0.43;0.43;;;;;;;6.04;63.98;99633.81;5115960;28;20118;-65
2023/04/02 20:22:17;;;;;;;0.30;0.30;;;;;;;6.07;63.90;99643.09;5115953;27;20066;-66
2023/04/02 20:24:46;;;;;;;0.77;0.77;;;;;;;5.96;63.83;99649.69;5115888;28;20046;-65
2023/04/02 20:27:17;;;;;;;0.50;0.50;;;;;;;5.98;64.15;99653.09;5115714;28;20496;-64
2023/04/02 20:29:47;;;;;;;0.43;0.43;;;;;;;5.94;64.37;99653.88;5081429;28;20409;-64
2023/04/02 20:32:16;;;;;;;3.35;1.00;;;;;;;5.93;64.57;99654.69;5115741;28;20051;-65
2023/04/02 20:34:45;;;;;;;3.17;1.60;;;;;;;5.94;64.65;99661.47;5115654;28;20046;-64
2023/04/02 20:37:14;;;;;;;2.57;1.27;;;;;;;5.92;64.33;99673.25;5115536;28;20090;-65
2023/04/02 20:39:55;;;;;;;1.73;1.15;;;;;;;5.93;64.00;99662.28;5116280;28;20055;-68
2023/04/02 20:42:24;;;;;;;0.45;0.45;;;;;;;5.84;64.53;99672.22;5115525;28;20048;-67
2023/04/02 20:44:54;;;;;;;0.43;0.43;;;;;;;5.86;64.46;99673.13;5115481;28;20093;-66
2023/04/02 20:47:23;;;;;;;1.70;1.15;;;;;;;5.90;64.40;99674.91;5115817;28;20064;-66
2023/04/02 20:49:52;;;;;;;0.40;0.40;;;;;;;5.85;64.46;99677.38;5115400;28;20045;-64
2023/04/02 20:52:24;;;;;;;0.30;0.30;;;;;;;5.84;64.84;99674.75;5115701;28;20047;-64
2023/04/02 20:54:53;;;;;;;0.77;0.77;;;;;;;5.73;64.69;99661.06;5115273;28;20134;-64
2023/04/02 20:57:22;;;;;;;0.77;0.77;;;;;;;5.78;64.99;99674.66;5115045;28;20040;-65
2023/04/02 20:59:51;;;;;;;0.22;0.22;;;;;;;5.75;65.12;99672.06;5115178;28;20051;-65
2023/04/02 21:02:21;;;;;;;0.30;0.30;;;;;;;5.82;65.02;99678.94;5115128;28;20501;-65
2023/04/02 21:04:50;;;;;;;0.50;0.50;;;;;;;5.82;64.89;99676.41;5115397;28;20074;-64
2023/04/02 21:07:19;;;;;;;0.63;0.63;;;;;;;5.84;64.62;99674.75;5115287;28;20081;-65
2023/04/02 21:09:48;;;;;;;0.40;0.40;;;;;;;5.78;64.71;99674.66;5114981;28;20040;-66
2023/04/02 21:12:17;;;;;;;2.27;0.70;;;;;;;5.79;64.77;99686.47;5114957;28;20135;-66
2023/04/02 21:14:47;;;;;;;0.40;0.40;;;;;;;5.81;64.85;99680.63;5114651;28;20530;-65
2023/04/02 21:17:16;;;;;;;1.20;0.65;;;;;;;5.78;64.86;99684.78;5114648;28;20736;-66
2023/04/02 21:19:46;;;;;;;0.30;0.30;;;;;;;5.75;64.70;99670.41;5114811;28;20038;-64
2023/04/02 21:22:15;;;;;;;0.30;0.30;;;;;;;5.74;64.90;99677.94;5115182;28;20043;-66
2023/04/02 21:24:44;;;;;;;1.35;1.08;;;;;;;5.74;64.93;99683.88;5114201;28;20071;-70
2023/04/02 21:27:13;;;;;;;0.40;0.40;;;;;;;5.77;64.85;99678.88;5115012;28;20118;-65
2023/04/02 21:29:42;;;;;;;0.20;0.20;;;;;;;5.74;64.93;99677.94;5114624;28;20032;-65
2023/04/02 21:32:11;;;;;;;0.80;0.80;;;;;;;5.73;64.69;99682.19;5114574;28;20126;-65
2023/04/02 21:34:52;;;;;;;0.60;0.60;;;;;;;5.68;64.93;99682.91;5114593;28;20078;-66
2023/04/02 21:37:21;;;;;;;0.43;0.43;;;;;;;5.67;65.10;99671.06;5114448;28;20286;-66
2023/04/02 21:39:50;;;;;;;0.43;0.43;;;;;;;5.67;64.74;99686.25;5114328;28;20040;-66
2023/04/02 21:42:19;;;;;;;0.40;0.40;;;;;;;5.71;64.94;99688.03;5114907;28;20036;-66
2023/04/02 21:44:48;;;;;;;2.50;1.63;;;;;;;5.64;65.06;99691.28;5114368;28;20528;-65
2023/04/02 21:47:17;;;;;;;1.50;1.30;;;;;;;5.65;64.81;99693.81;5114646;28;20043;-65
2023/04/02 21:49:46;;;;;;;0.23;0.23;;;;;;;5.64;65.08;99691.28;5114255;28;20047;-65
2023/04/02 21:52:16;;;;;;;0.60;0.60;;;;;;;5.64;64.95;99691.28;5114631;28;20047;-65
2023/04/02 21:54:45;;;;;;;0.40;0.40;;;;;;;5.61;65.02;99697.13;5114554;28;20039;-65
2023/04/02 21:57:13;;;;;;;0.93;0.93;;;;;;;5.61;65.13;99691.22;5114487;28;20489;-66
2023/04/02 21:59:45;;;;;;;0.20;0.20;;;;;;;5.61;65.12;99696.28;5114073;28;20055;-64
2023/04/02 22:02:14;;;;;;;0.40;0.40;;;;;;;5.60;65.09;99704.69;5114133;28;20036;-64
2023/04/02 22:04:43;;;;;;;0.30;0.30;;;;;;;5.60;65.06;99702.16;5112913;28;20358;-65
2023/04/02 22:07:12;;;;;;;;;;;;;;;5.60;65.29;99709.75;5114516;28;20058;-66
2023/04/02 22:09:42;;;;;;;0.30;0.30;;;;;;;5.58;65.31;99708.88;5114018;28;19919;-65
2023/04/02 22:12:11;;;;;;;0.38;0.38;;;;;;;5.56;65.47;99702.91;5114099;28;20048;-65
2023/04/02 22:14:40;;;;;;;0.93;0.90;;;;;;;5.59;65.38;99703.00;5114074;28;20460;-65
2023/04/02 22:17:09;;;;;;;0.40;0.40;;;;;;;5.59;65.33;99706.34;5114003;28;20070;-65
2023/04/02 22:19:37;;;;;;;0.40;0.40;;;;;;;5.56;65.42;99711.38;5113800;28;20295;-66
2023/04/02 22:22:07;;;;;;;1.40;1.30;;;;;;;5.49;65.57;99696.91;5113946;28;20051;-66
2023/04/02 22:24:35;;;;;;;0.47;0.47;;;;;;;5.51;65.69;99714.63;5113901;28;20089;-65
2023/04/02 22:27:06;;;;;;;0.85;0.85;;;;;;;5.47;65.90;99715.41;5113891;28;20143;-66
2023/04/02 22:29:34;;;;;;;0.40;0.40;;;;;;;5.42;66.24;99725.44;5113863;28;20047;-65
2023/04/02 22:32:04;;;;;;;0.77;0.77;;;;;;;5.46;66.25;99716.22;5113919;28;20063;-65
2023/04/02 22:34:33;;;;;;;1.77;1.67;;;;;;;5.48;66.39;99724.69;5113754;28;20050;-65
2023/04/02 22:37:02;;;;;;;2.55;0.95;;;;;;;5.49;66.39;99728.94;5116769;28;20520;-66
2023/04/02 22:39:42;;;;;;;0.40;0.40;;;;;;;5.47;66.53;99723.00;5118043;28;20040;-66
2023/04/02 22:42:25;;;;;;;0.75;0.75;;;;;;;5.45;66.87;99722.13;5118002;28;20046;-65
2023/04/02 22:44:57;;;;;;;0.50;0.50;;;;;;;5.43;66.64;99722.94;5117701;28;20075;-66
2023/04/02 22:47:25;;;;;;;0.50;0.50;;;;;;;5.46;66.82;99723.81;5118126;28;20105;-65
2023/04/02 22:49:54;;;;;;;0.67;0.67;;;;;;;5.51;67.05;99727.28;5118058;28;20122;-66
2023/04/02 22:52:23;;;;;;;1.27;0.85;;;;;;;5.46;66.54;99729.72;5117586;28;20036;-66
2023/04/02 22:54:52;;;;;;;1.35;1.25;;;;;;;5.47;67.00;99720.47;5117619;28;20097;-66
2023/04/02 22:57:20;;;;;;;0.50;0.50;;;;;;;5.48;67.15;99728.06;5117640;28;20043;-65
2023/04/02 22:59:51;;;;;;;1.25;1.10;;;;;;;5.51;67.24;99714.63;5117769;28;20065;-66
2023/04/02 23:02:30;;;;;;;1.17;0.90;;;;;;;5.52;67.10;99722.25;5117795;28;20055;-65
2023/04/02 23:05:00;;;;;;;0.93;0.93;;;;;;;5.51;67.07;99724.75;5117421;28;20039;-65
2023/04/02 23:07:40;;;;;;;0.60;0.60;;;;;;;5.48;67.27;99719.63;5117760;28;20042;-66
2023/04/02 23:10:10;;;;;;;0.32;0.32;;;;;;;5.55;67.23;99726.50;5117642;28;20156;-67
2023/04/02 23:12:49;;;;;;;0.45;0.45;;;;;;;5.55;67.24;99721.44;5117453;28;20052;-65
2023/04/02 23:15:30;;;;;;;;;;;;;;;5.51;67.58;99722.22;5117717;28;20048;-65
2023/04/02 23:17:59;;;;;;;0.63;0.35;;;;;;;5.55;67.94;99723.97;5117520;28;19985;-65
2023/04/02 23:20:28;;;;;;;0.63;0.63;;;;;;;5.57;67.58;99719.81;5117061;28;20058;-65
2023/04/02 23:23:07;;;;;;;;;;;;;;;5.61;67.50;99721.59;5117638;28;20072;-66
2023/04/02 23:25:47;;;;;;;0.30;0.30;;;;;;;5.58;67.29;99721.53;5117214;28;19927;-65
2023/04/02 23:28:16;;;;;;;0.20;0.20;;;;;;;5.61;67.56;99721.59;5116990;28;20039;-65
2023/04/02 23:30:47;;;;;;;0.43;0.43;;;;;;;5.59;67.45;99718.19;5116990;28;20051;-65
2023/04/02 23:33:15;;;;;;;0.50;0.50;;;;;;;5.59;67.73;99718.19;5116884;28;20059;-65
2023/04/02 23:35:44;;;;;;;0.37;0.37;;;;;;;5.61;67.83;99717.38;5116898;28;20122;-65
2023/04/02 23:38:13;;;;;;;0.55;0.50;;;;;;;5.51;68.22;99720.56;5115600;28;20394;-66
2023/04/02 23:40:42;;;;;;;1.20;1.10;;;;;;;5.47;68.27;99713.69;5116664;28;20043;-66
2023/04/02 23:43:11;;;;;;;0.93;0.93;;;;;;;5.49;68.23;99716.28;5116921;28;20490;-66
2023/04/02 23:45:40;;;;;;;0.40;0.40;;;;;;;5.47;68.40;99728.06;5116650;28;20563;-66
2023/04/02 23:48:10;;;;;;;0.25;0.25;;;;;;;5.42;68.17;99726.28;5116177;27;20043;-66
2023/04/02 23:50:39;;;;;;;0.50;0.50;;;;;;;5.39;68.42;99726.22;5116865;28;20063;-66
2023/04/02 23:53:08;;;;;;;0.33;0.33;;;;;;;5.38;68.50;99719.44;5116489;28;20050;-66
2023/04/02 23:55:36;;;;;;;0.30;0.30;;;;;;;5.34;68.51;99717.69;5116726;28;20430;-67
2023/04/02 23:58:05;;;;;;;0.43;0.43;;;;;;;5.27;68.76;99723.44;5116753;28;20186;-66
